createdAt,value
2023-05-10T00:03:01.484Z,101.78
2023-05-10T00:31:43.960Z,100.16
2023-05-10T01:00:20.391Z,98.83
2023-05-10T01:29:06.674Z,97.95
2023-05-10T01:57:49.189Z,98.63
2023-05-10T02:26:35.227Z,101.14
2023-05-10T02:55:20.257Z,100.9
2023-05-10T03:24:05.081Z,101
2023-05-10T03:52:39.897Z,102.58
2023-05-10T04:21:29.656Z,102.49
2023-05-10T04:50:08.143Z,100.5
2023-05-10T05:18:31.681Z,101.72
2023-05-10T05:47:29.392Z,103.06
2023-05-10T06:15:58.931Z,102.76
2023-05-10T06:44:29.707Z,99.77
2023-05-10T07:41:50.086Z,92.75
2023-05-10T08:10:32.562Z,79.81
2023-05-10T08:39:30.593Z,77.7
2023-05-10T09:07:30.986Z,78.85
2023-05-10T09:36:10.751Z,69.04
2023-05-10T10:04:39.289Z,63.41
2023-05-10T10:33:28.281Z,59.71
2023-05-10T11:01:33.649Z,55.64
2023-05-10T11:30:07.301Z,51.42
2023-05-10T11:58:43.291Z,52.07
2023-05-10T12:56:01.333Z,56.13
2023-05-10T13:24:40.991Z,53.07
2023-05-10T13:53:11.803Z,50.96
2023-05-10T14:21:46.798Z,52.07
2023-05-10T14:50:36.794Z,56.24
2023-05-10T15:18:33.355Z,62.14
2023-05-10T15:46:58.013Z,68.54
2023-05-10T16:15:13.446Z,72.51
2023-05-10T17:12:21.662Z,67.51
2023-05-10T17:40:51.360Z,64.66
2023-05-10T18:09:24.218Z,66.38
2023-05-10T18:38:01.114Z,66.97
2023-05-10T19:06:19.233Z,69.99
2023-05-10T19:34:49.187Z,74.81
2023-05-10T20:03:22.398Z,77.15
2023-05-10T20:31:57.102Z,76.97
2023-05-10T21:00:31.370Z,80.22
2023-05-10T21:29:16.661Z,77.06
2023-05-10T21:57:50.631Z,77.72
2023-05-10T22:26:33.717Z,79.1
2023-05-10T22:55:05.346Z,80.13
2023-05-10T23:23:49.597Z,80.27
2023-05-10T23:52:25.442Z,80.11
